createdAt,value
2024-03-07T00:00:32.208Z,1.26
2024-03-07T00:01:32.320Z,1.29
2024-03-07T00:02:32.442Z,1.27
2024-03-07T00:03:32.507Z,1.58
2024-03-07T00:04:32.571Z,1.42
2024-03-07T00:05:32.656Z,1.48
2024-03-07T00:06:32.688Z,1.35
2024-03-07T00:07:32.801Z,1.59
2024-03-07T00:08:32.930Z,1.11
2024-03-07T00:09:32.954Z,1.60
2024-03-07T00:10:32.985Z,1.22
2024-03-07T00:11:33.194Z,1.34
2024-03-07T00:12:33.205Z,1.28
2024-03-07T00:13:33.284Z,1.67
2024-03-07T00:14:33.393Z,1.14
2024-03-07T00:15:33.427Z,1.96
2024-03-07T00:16:33.510Z,1.54
2024-03-07T00:17:33.610Z,1.71
2024-03-07T00:18:33.711Z,1.22
2024-03-07T00:19:33.731Z,1.65
2024-03-07T00:20:33.896Z,1.07
2024-03-07T00:21:33.894Z,1.42
2024-03-07T00:22:34.011Z,1.16
2024-03-07T00:23:34.146Z,1.32
2024-03-07T00:24:34.177Z,1.35
2024-03-07T00:25:34.248Z,1.43
2024-03-07T00:26:34.349Z,1.83
2024-03-07T00:27:34.433Z,1.27
2024-03-07T00:28:34.511Z,1.23
2024-03-07T00:29:34.612Z,1.31
2024-03-07T00:30:34.652Z,1.24
2024-03-07T00:31:34.782Z,1.55
2024-03-07T00:32:34.921Z,1.31
2024-03-07T00:33:51.164Z,1.33
2024-03-07T00:34:35.998Z,1.43
2024-03-07T00:35:35.008Z,1.10
2024-03-07T00:36:35.020Z,1.41
2024-03-07T00:37:35.008Z,1.33
2024-03-07T00:38:35.035Z,1.26
2024-03-07T00:39:34.988Z,1.37
2024-03-07T00:40:34.988Z,1.45
2024-03-07T00:41:35.045Z,1.43
2024-03-07T00:42:35.133Z,1.55
2024-03-07T00:43:35.183Z,1.49
2024-03-07T00:44:35.247Z,1.29
2024-03-07T00:45:35.363Z,1.27
2024-03-07T00:46:35.475Z,1.70
2024-03-07T00:47:35.675Z,1.23
2024-03-07T00:48:35.661Z,1.59
2024-03-07T00:49:35.767Z,1.23
2024-03-07T00:50:35.952Z,1.66
2024-03-07T00:52:36.077Z,1.38
2024-03-07T00:53:36.238Z,1.38
2024-03-07T00:54:36.270Z,1.11
2024-03-07T00:55:36.374Z,1.35
2024-03-07T00:56:36.499Z,1.35
2024-03-07T00:57:36.566Z,1.24
2024-03-07T00:58:36.661Z,1.05
2024-03-07T00:59:36.791Z,1.36
2024-03-07T01:00:36.867Z,1.79
2024-03-07T01:01:36.952Z,1.65
2024-03-07T01:02:37.063Z,1.05
2024-03-07T01:03:37.124Z,1.42
2024-03-07T01:04:37.215Z,1.45
2024-03-07T01:05:37.342Z,1.32
2024-03-07T01:06:37.398Z,1.28
2024-03-07T01:07:37.493Z,1.34
2024-03-07T01:08:37.614Z,1.37
2024-03-07T01:09:37.653Z,1.29
2024-03-07T01:10:37.757Z,1.42
2024-03-07T01:11:37.929Z,1.46
2024-03-07T01:12:37.883Z,1.58
2024-03-07T01:13:38.065Z,1.22
2024-03-07T01:14:38.106Z,1.33
2024-03-07T01:15:38.186Z,1.31
2024-03-07T01:16:38.244Z,1.44
2024-03-07T01:17:38.453Z,1.01
2024-03-07T01:18:38.496Z,1.15
2024-03-07T01:19:38.521Z,1.32
2024-03-07T01:20:38.663Z,1.72
2024-03-07T01:21:39.255Z,1.33
2024-03-07T01:22:38.737Z,1.64
2024-03-07T01:23:38.767Z,1.43
2024-03-07T01:24:38.756Z,1.44
2024-03-07T01:25:38.821Z,1.24
2024-03-07T01:26:38.871Z,1.15
2024-03-07T01:27:38.898Z,1.45
2024-03-07T01:28:38.970Z,1.53
2024-03-07T01:29:38.998Z,1.08
2024-03-07T01:30:38.972Z,1.10
2024-03-07T01:31:39.028Z,1.49
2024-03-07T01:32:39.134Z,1.37
2024-03-07T01:33:39.177Z,1.36
2024-03-07T01:34:39.162Z,1.38
2024-03-07T01:35:39.212Z,1.06
2024-03-07T01:36:39.320Z,1.07
2024-03-07T01:37:39.270Z,1.33
2024-03-07T01:38:39.372Z,1.51
2024-03-07T01:39:39.373Z,1.25
2024-03-07T01:40:39.392Z,1.40
2024-03-07T01:41:39.498Z,1.61
2024-03-07T01:42:39.520Z,1.34
2024-03-07T01:43:39.587Z,1.58
2024-03-07T01:44:40.565Z,1.36
2024-03-07T01:45:39.640Z,1.30
2024-03-07T01:46:39.725Z,1.28
2024-03-07T01:48:08.897Z,1.54
2024-03-07T01:49:08.830Z,1.43
2024-03-07T01:50:08.825Z,1.36
2024-03-07T01:51:08.824Z,1.44
2024-03-07T01:52:08.837Z,0.90
2024-03-07T01:53:08.806Z,1.35
2024-03-07T01:54:08.808Z,1.34
2024-03-07T01:55:08.802Z,1.46
2024-03-07T01:56:08.827Z,1.42
2024-03-07T01:57:08.819Z,1.62
2024-03-07T01:58:08.836Z,1.16
2024-03-07T01:59:08.954Z,1.15
2024-03-07T02:00:08.906Z,1.07
2024-03-07T02:01:08.835Z,1.40
2024-03-07T02:02:08.856Z,1.14
2024-03-07T02:03:08.826Z,1.36
2024-03-07T02:04:08.822Z,1.06
2024-03-07T02:05:08.858Z,1.33
2024-03-07T02:06:08.816Z,1.22
2024-03-07T02:07:08.834Z,1.43
2024-03-07T02:08:08.809Z,1.24
2024-03-07T02:09:08.807Z,1.67
2024-03-07T02:10:08.856Z,1.47
2024-03-07T02:11:08.853Z,1.45
2024-03-07T02:12:08.885Z,1.13
2024-03-07T02:13:08.831Z,1.17
2024-03-07T02:14:08.878Z,1.21
2024-03-07T02:15:08.825Z,1.59
2024-03-07T02:16:08.830Z,1.27
2024-03-07T02:17:08.848Z,1.13
2024-03-07T02:18:08.893Z,1.38
2024-03-07T02:19:08.845Z,1.52
2024-03-07T02:20:08.888Z,1.25
2024-03-07T02:21:08.871Z,1.15
2024-03-07T02:22:08.842Z,1.29
2024-03-07T02:23:08.865Z,1.39
2024-03-07T02:24:08.854Z,1.16
2024-03-07T02:25:08.856Z,1.07
2024-03-07T02:26:08.867Z,1.35
2024-03-07T02:27:08.884Z,1.20
2024-03-07T02:28:08.903Z,1.26
2024-03-07T02:29:08.972Z,1.52
2024-03-07T02:30:09.092Z,1.28
2024-03-07T02:31:09.179Z,1.89
2024-03-07T02:32:09.218Z,1.14
2024-03-07T02:33:09.504Z,1.15
2024-03-07T02:34:09.360Z,1.07
2024-03-07T02:35:09.467Z,1.06
2024-03-07T02:36:09.546Z,1.20
2024-03-07T02:37:09.662Z,1.11
2024-03-07T02:38:09.920Z,1.33
2024-03-07T02:39:09.808Z,1.53
2024-03-07T02:40:09.885Z,1.36
2024-03-07T02:41:09.923Z,1.38
2024-03-07T02:42:10.024Z,1.63
2024-03-07T02:43:10.118Z,1.69
2024-03-07T02:44:10.250Z,1.42
2024-03-07T02:45:10.273Z,0.98
2024-03-07T02:46:10.365Z,1.08
2024-03-07T02:47:10.496Z,1.32
2024-03-07T02:48:11.247Z,1.09
2024-03-07T02:49:10.739Z,1.25
2024-03-07T02:50:10.744Z,1.44
2024-03-07T02:51:10.761Z,1.51
2024-03-07T02:52:10.870Z,1.28
2024-03-07T02:53:10.985Z,1.47
2024-03-07T02:54:11.087Z,1.15
2024-03-07T02:55:11.131Z,1.22
2024-03-07T02:56:11.274Z,1.17
2024-03-07T02:57:11.329Z,1.01
2024-03-07T02:58:11.427Z,1.38
2024-03-07T02:59:11.484Z,1.15
2024-03-07T03:00:11.561Z,1.25
2024-03-07T03:01:11.724Z,1.12
2024-03-07T03:02:11.815Z,1.21
2024-03-07T03:03:11.855Z,1.31
2024-03-07T03:04:11.967Z,1.13
2024-03-07T03:05:12.086Z,1.32
2024-03-07T03:06:12.133Z,1.17
2024-03-07T03:07:12.205Z,1.10
2024-03-07T03:08:12.365Z,1.42
2024-03-07T03:09:12.399Z,1.39
2024-03-07T03:10:12.524Z,1.04
2024-03-07T03:11:12.634Z,1.35
2024-03-07T03:12:12.720Z,1.32
2024-03-07T03:13:12.765Z,1.26
2024-03-07T03:14:12.927Z,1.17
2024-03-07T03:15:12.944Z,1.48
2024-03-07T03:16:13.061Z,1.55
2024-03-07T03:17:13.141Z,1.38
2024-03-07T03:18:13.344Z,0.96
2024-03-07T03:19:13.353Z,1.55
2024-03-07T03:20:13.482Z,1.51
2024-03-07T03:21:13.532Z,1.22
2024-03-07T03:22:13.647Z,1.31
2024-03-07T03:23:20.016Z,1.28
2024-03-07T03:24:14.752Z,1.80
2024-03-07T03:25:13.768Z,1.21
2024-03-07T03:26:13.726Z,1.24
2024-03-07T03:27:13.762Z,1.39
2024-03-07T03:28:13.748Z,1.05
2024-03-07T03:29:13.824Z,1.32
2024-03-07T03:30:13.774Z,1.45
2024-03-07T03:31:13.787Z,1.25
2024-03-07T03:32:13.824Z,1.09
2024-03-07T03:33:13.843Z,1.33
2024-03-07T03:34:13.827Z,1.39
2024-03-07T03:35:13.914Z,1.34
2024-03-07T03:36:13.985Z,1.29
2024-03-07T03:37:14.069Z,1.16
2024-03-07T03:38:14.229Z,1.93
2024-03-07T03:39:14.537Z,1.28
2024-03-07T03:40:14.316Z,1.62
2024-03-07T03:41:14.367Z,1.22
2024-03-07T03:42:14.392Z,1.45
2024-03-07T03:43:14.446Z,1.58
2024-03-07T03:44:14.518Z,1.20
2024-03-07T03:45:15.509Z,1.33
2024-03-07T03:46:14.565Z,1.33
2024-03-07T03:47:14.623Z,1.38
2024-03-07T03:48:14.904Z,1.16
2024-03-07T03:49:14.687Z,1.59
2024-03-07T03:50:14.740Z,1.53
2024-03-07T03:51:14.752Z,1.39
2024-03-07T03:52:14.848Z,1.38
2024-03-07T03:53:14.961Z,1.59
2024-03-07T03:54:15.019Z,1.34
2024-03-07T03:55:15.122Z,1.63
2024-03-07T03:56:15.249Z,1.58
2024-03-07T03:57:15.330Z,1.46
2024-03-07T03:58:15.430Z,1.65
2024-03-07T03:59:15.644Z,1.65
2024-03-07T04:00:15.686Z,1.41
2024-03-07T04:01:16.016Z,1.64
2024-03-07T04:02:15.879Z,1.61
2024-03-07T04:03:15.957Z,1.24
2024-03-07T04:04:16.039Z,2.08
2024-03-07T04:05:16.160Z,1.66
2024-03-07T04:06:16.232Z,1.29
2024-03-07T04:07:16.310Z,1.51
2024-03-07T04:08:16.505Z,1.27
2024-03-07T04:09:16.514Z,1.25
2024-03-07T04:10:16.614Z,1.56
2024-03-07T04:11:16.769Z,1.57
2024-03-07T04:12:16.876Z,1.49
2024-03-07T04:13:16.895Z,1.61
2024-03-07T04:14:17.047Z,1.44
2024-03-07T04:15:17.092Z,1.18
2024-03-07T04:16:17.195Z,1.43
2024-03-07T04:17:17.346Z,1.41
2024-03-07T04:18:17.578Z,1.44
2024-03-07T04:19:17.534Z,1.74
2024-03-07T04:20:17.644Z,1.48
2024-03-07T04:21:17.735Z,1.44
2024-03-07T04:22:17.818Z,1.64
2024-03-07T04:23:17.952Z,1.70
2024-03-07T04:24:18.021Z,1.27
2024-03-07T04:25:18.148Z,1.71
2024-03-07T04:26:18.244Z,2.06
2024-03-07T04:27:18.346Z,1.62
2024-03-07T04:28:18.422Z,1.27
2024-03-07T04:29:18.562Z,1.67
2024-03-07T04:30:25.796Z,1.76
2024-03-07T04:31:33.509Z,1.91
2024-03-07T04:32:33.586Z,1.44
2024-03-07T04:33:33.678Z,1.34
2024-03-07T04:34:33.507Z,2.22
2024-03-07T04:35:33.529Z,1.77
2024-03-07T04:36:33.519Z,1.38
2024-03-07T04:37:33.532Z,1.37
2024-03-07T04:38:33.576Z,1.53
2024-03-07T04:39:33.563Z,1.67
2024-03-07T04:40:33.505Z,1.72
2024-03-07T04:41:33.617Z,1.48
2024-03-07T04:42:33.555Z,1.55
2024-03-07T04:43:33.542Z,1.44
2024-03-07T04:44:33.610Z,1.86
2024-03-07T04:45:33.557Z,1.56
2024-03-07T04:46:33.552Z,1.70
2024-03-07T04:47:33.674Z,1.57
2024-03-07T04:48:33.669Z,1.53
2024-03-07T04:49:33.556Z,1.15
2024-03-07T04:50:33.618Z,1.74
2024-03-07T04:51:33.556Z,1.58
2024-03-07T04:52:33.564Z,1.13
2024-03-07T04:53:33.586Z,1.43
2024-03-07T04:54:33.556Z,1.35
2024-03-07T04:55:33.543Z,1.35
2024-03-07T04:56:33.596Z,1.75
2024-03-07T04:57:33.544Z,1.27
2024-03-07T04:58:33.550Z,1.54
2024-03-07T04:59:33.634Z,1.46
2024-03-07T05:00:33.769Z,1.69
2024-03-07T05:01:33.827Z,1.32
2024-03-07T05:02:33.921Z,1.28
2024-03-07T05:03:34.031Z,0.97
2024-03-07T05:04:34.139Z,1.23
2024-03-07T05:05:34.320Z,1.37
2024-03-07T05:06:34.313Z,1.14
2024-03-07T05:07:34.423Z,1.32
2024-03-07T05:08:34.629Z,1.57
2024-03-07T05:09:34.607Z,1.57
2024-03-07T05:10:34.729Z,1.56
2024-03-07T05:11:34.873Z,1.43
2024-03-07T05:12:34.912Z,1.88
2024-03-07T05:13:35.047Z,1.60
2024-03-07T05:14:35.166Z,1.47
2024-03-07T05:15:37.087Z,1.60
2024-03-07T05:16:35.243Z,1.26
2024-03-07T05:17:35.289Z,1.84
2024-03-07T05:18:35.268Z,1.51
2024-03-07T05:19:35.250Z,1.25
2024-03-07T05:20:35.253Z,1.51
2024-03-07T05:21:35.254Z,1.31
2024-03-07T05:22:35.215Z,1.70
2024-03-07T05:23:35.313Z,1.49
2024-03-07T05:24:35.558Z,1.63
2024-03-07T05:25:35.262Z,1.25
2024-03-07T05:26:35.300Z,1.66
2024-03-07T05:27:35.240Z,1.51
2024-03-07T05:28:35.260Z,1.37
2024-03-07T05:29:35.304Z,1.63
2024-03-07T05:30:35.249Z,1.14
2024-03-07T05:31:35.272Z,1.35
2024-03-07T05:32:35.334Z,1.17
2024-03-07T05:33:35.282Z,1.18
2024-03-07T05:34:35.251Z,1.36
2024-03-07T05:35:35.321Z,1.58
2024-03-07T05:36:35.253Z,1.45
2024-03-07T05:37:35.291Z,1.55
2024-03-07T05:38:35.317Z,1.49
2024-03-07T05:39:35.283Z,1.41
2024-03-07T05:40:35.289Z,1.20
2024-03-07T05:41:35.310Z,1.17
2024-03-07T05:42:35.250Z,1.72
2024-03-07T05:43:35.259Z,1.60
2024-03-07T05:44:35.405Z,1.41
2024-03-07T05:45:35.284Z,1.41
2024-03-07T05:46:35.288Z,1.61
2024-03-07T05:47:35.342Z,1.22
2024-03-07T05:48:35.327Z,1.39
2024-03-07T05:49:35.312Z,1.36
2024-03-07T05:50:35.323Z,1.60
2024-03-07T05:51:35.288Z,1.11
2024-03-07T05:52:35.392Z,1.20
2024-03-07T05:53:35.560Z,1.59
2024-03-07T05:54:35.609Z,1.50
2024-03-07T05:55:35.700Z,1.57
2024-03-07T05:56:35.852Z,1.45
2024-03-07T05:57:35.853Z,1.43
2024-03-07T05:58:35.957Z,1.26
2024-03-07T05:59:36.118Z,1.29
2024-03-07T06:00:58.760Z,1.28
2024-03-07T06:01:36.160Z,1.29
2024-03-07T06:02:36.206Z,1.60
2024-03-07T06:03:36.204Z,1.54
2024-03-07T06:04:36.160Z,1.32
2024-03-07T06:05:36.248Z,1.02
2024-03-07T06:06:36.166Z,1.47
2024-03-07T06:07:36.130Z,1.43
2024-03-07T06:08:36.175Z,1.54
2024-03-07T06:09:36.180Z,1.14
2024-03-07T06:10:36.280Z,1.45
2024-03-07T06:11:36.329Z,1.47
2024-03-07T06:12:36.246Z,1.67
2024-03-07T06:13:36.185Z,1.57
2024-03-07T06:14:36.274Z,2.21
2024-03-07T06:15:36.149Z,1.39
2024-03-07T06:16:36.177Z,1.76
2024-03-07T06:17:36.219Z,1.66
2024-03-07T06:18:36.239Z,1.08
2024-03-07T06:19:36.185Z,1.22
2024-03-07T06:20:36.262Z,1.56
2024-03-07T06:21:36.201Z,1.52
2024-03-07T06:22:36.210Z,1.14
2024-03-07T06:23:36.390Z,1.11
2024-03-07T06:24:36.407Z,1.01
2024-03-07T06:25:36.459Z,1.15
2024-03-07T06:26:36.696Z,1.32
2024-03-07T06:27:36.684Z,1.18
2024-03-07T06:28:36.755Z,1.34
2024-03-07T06:29:36.901Z,1.10
2024-03-07T06:30:36.952Z,1.30
2024-03-07T06:31:37.040Z,1.14
2024-03-07T06:32:37.234Z,1.19
2024-03-07T06:33:37.333Z,1.41
2024-03-07T06:34:37.687Z,1.37
2024-03-07T06:35:37.499Z,1.45
2024-03-07T06:36:37.571Z,2.41
2024-03-07T06:37:37.650Z,2.53
2024-03-07T06:38:37.829Z,3.64
2024-03-07T06:39:38.170Z,3.30
2024-03-07T06:40:37.944Z,3.45
2024-03-07T06:41:38.087Z,3.92
2024-03-07T06:42:38.151Z,2.94
2024-03-07T06:43:38.271Z,3.67
2024-03-07T06:44:38.735Z,4.05
2024-03-07T06:46:00.963Z,3.74
2024-03-07T06:46:38.469Z,4.90
2024-03-07T06:47:38.798Z,3.44
2024-03-07T06:48:38.565Z,3.95
2024-03-07T06:49:38.745Z,3.81
2024-03-07T06:50:39.214Z,3.87
2024-03-07T06:51:38.494Z,3.77
2024-03-07T06:52:40.115Z,3.70
2024-03-07T06:53:38.531Z,4.40
2024-03-07T06:54:39.665Z,3.96
2024-03-07T06:55:38.528Z,4.79
2024-03-07T06:56:38.525Z,3.51
2024-03-07T06:57:38.478Z,3.62
2024-03-07T06:58:38.470Z,3.78
2024-03-07T06:59:38.525Z,4.28
2024-03-07T07:00:39.351Z,4.39
2024-03-07T07:01:38.514Z,3.88
2024-03-07T07:02:38.584Z,4.21
2024-03-07T07:03:38.509Z,3.35
2024-03-07T07:04:38.532Z,4.10
2024-03-07T07:05:38.791Z,3.16
2024-03-07T07:06:38.640Z,3.34
2024-03-07T07:07:38.710Z,3.91
2024-03-07T07:08:38.835Z,3.48
2024-03-07T07:09:38.882Z,3.78
2024-03-07T07:10:39.238Z,4.02
2024-03-07T07:11:39.206Z,3.35
2024-03-07T07:12:39.114Z,3.27
2024-03-07T07:13:39.203Z,3.36
2024-03-07T07:14:39.310Z,3.89
2024-03-07T07:15:39.722Z,3.40
2024-03-07T07:16:39.380Z,3.64
2024-03-07T07:17:39.570Z,3.51
2024-03-07T07:18:39.778Z,3.51
2024-03-07T07:19:39.613Z,3.61
2024-03-07T07:20:39.722Z,3.30
2024-03-07T07:21:39.796Z,3.18
2024-03-07T07:22:39.874Z,3.71
2024-03-07T07:23:40.008Z,3.60
2024-03-07T07:24:39.979Z,3.29
2024-03-07T07:25:40.097Z,3.87
2024-03-07T07:26:40.173Z,3.22
2024-03-07T07:27:40.224Z,3.23
2024-03-07T07:28:40.318Z,3.62
2024-03-07T07:29:40.414Z,3.57
2024-03-07T07:30:41.890Z,3.28
2024-03-07T07:31:40.449Z,3.11
2024-03-07T07:32:40.482Z,3.01
2024-03-07T07:33:40.536Z,3.04
2024-03-07T07:34:40.461Z,3.72
2024-03-07T07:35:40.745Z,3.22
2024-03-07T07:36:40.494Z,3.38
2024-03-07T07:37:40.473Z,3.50
2024-03-07T07:38:40.496Z,3.42
2024-03-07T07:39:40.467Z,3.70
2024-03-07T07:40:40.500Z,3.53
2024-03-07T07:41:40.510Z,3.88
2024-03-07T07:42:40.480Z,2.98
2024-03-07T07:44:40.512Z,3.98
2024-03-07T07:45:40.494Z,3.07
2024-03-07T07:46:40.499Z,3.52
2024-03-07T07:47:40.554Z,3.59
2024-03-07T07:48:40.609Z,3.41
2024-03-07T07:49:40.502Z,3.38
2024-03-07T07:50:40.767Z,3.59
2024-03-07T07:51:40.493Z,3.07
2024-03-07T07:52:40.508Z,3.47
2024-03-07T07:53:40.525Z,3.76
2024-03-07T07:54:40.508Z,3.30
2024-03-07T07:55:40.507Z,3.13
2024-03-07T07:56:40.535Z,3.80
2024-03-07T07:57:40.485Z,4.11
2024-03-07T07:58:40.526Z,3.35
2024-03-07T07:59:40.581Z,3.55
2024-03-07T08:00:40.532Z,3.52
2024-03-07T08:01:40.519Z,2.92
2024-03-07T08:02:40.567Z,3.13
2024-03-07T08:03:40.528Z,2.95
2024-03-07T08:04:40.514Z,3.45
2024-03-07T08:05:40.592Z,3.18
2024-03-07T08:06:40.512Z,3.28
2024-03-07T08:07:40.548Z,2.96
2024-03-07T08:08:40.584Z,2.94
2024-03-07T08:09:40.525Z,2.81
2024-03-07T08:10:42.347Z,2.92
2024-03-07T08:11:40.638Z,3.09
2024-03-07T08:12:40.566Z,3.31
2024-03-07T08:13:40.560Z,3.05
2024-03-07T08:14:40.606Z,3.29
2024-03-07T08:15:40.588Z,3.40
2024-03-07T08:16:40.601Z,2.78
2024-03-07T08:17:40.675Z,2.79
2024-03-07T08:18:40.657Z,2.56
2024-03-07T08:19:40.569Z,2.77
2024-03-07T08:20:41.727Z,3.21
2024-03-07T08:21:40.625Z,3.39
2024-03-07T08:22:40.631Z,2.88
2024-03-07T08:23:40.628Z,2.58
2024-03-07T08:24:40.609Z,3.47
2024-03-07T08:25:40.998Z,2.96
2024-03-07T08:26:40.650Z,2.99
2024-03-07T08:27:40.624Z,2.77
2024-03-07T08:28:40.597Z,3.33
2024-03-07T08:29:40.694Z,2.84
2024-03-07T08:30:40.644Z,2.79
2024-03-07T08:31:40.762Z,3.06
2024-03-07T08:32:40.672Z,3.25
2024-03-07T08:33:40.735Z,4.85
2024-03-07T08:34:41.244Z,4.25
2024-03-07T08:35:40.756Z,4.80
2024-03-07T08:36:41.255Z,7.15
2024-03-07T08:37:40.804Z,7.44
2024-03-07T08:38:40.873Z,9.78
2024-03-07T08:39:40.970Z,7.58
2024-03-07T08:40:41.083Z,8.78
2024-03-07T08:41:41.294Z,7.43
2024-03-07T08:42:41.257Z,6.60
2024-03-07T08:43:41.320Z,8.43
2024-03-07T08:44:41.473Z,9.21
2024-03-07T08:45:41.469Z,8.99
2024-03-07T08:46:41.583Z,9.38
2024-03-07T08:47:41.800Z,9.37
2024-03-07T08:48:41.907Z,6.61
2024-03-07T08:49:41.948Z,7.27
2024-03-07T08:50:42.031Z,7.73
2024-03-07T08:51:42.739Z,6.43
2024-03-07T08:52:42.152Z,5.94
2024-03-07T08:53:42.275Z,6.34
2024-03-07T08:54:42.344Z,5.77
2024-03-07T08:55:42.431Z,6.80
2024-03-07T08:56:42.599Z,7.02
2024-03-07T08:57:42.641Z,5.45
2024-03-07T08:58:42.729Z,6.07
2024-03-07T08:59:42.845Z,6.96
2024-03-07T09:00:42.942Z,5.91
2024-03-07T09:01:43.086Z,5.42
2024-03-07T09:02:43.194Z,3.52
2024-03-07T09:03:43.194Z,5.49
2024-03-07T09:04:43.307Z,5.20
2024-03-07T09:05:43.703Z,4.25
2024-03-07T09:06:43.496Z,5.17
2024-03-07T09:07:43.577Z,6.06
2024-03-07T09:08:43.710Z,4.02
2024-03-07T09:09:43.788Z,6.92
2024-03-07T09:10:44.119Z,6.82
2024-03-07T09:11:44.016Z,6.41
2024-03-07T09:12:44.047Z,6.93
2024-03-07T09:13:44.114Z,6.15
2024-03-07T09:14:47.176Z,5.79
2024-03-07T09:15:44.229Z,6.04
2024-03-07T09:16:44.215Z,6.33
2024-03-07T09:17:44.269Z,5.49
2024-03-07T09:18:44.304Z,6.12
2024-03-07T09:19:44.225Z,4.81
2024-03-07T09:20:44.263Z,3.60
2024-03-07T09:21:44.219Z,4.75
2024-03-07T09:22:44.238Z,4.08
2024-03-07T09:23:44.288Z,4.46
2024-03-07T09:24:44.275Z,4.29
2024-03-07T09:25:44.274Z,4.30
2024-03-07T09:26:44.396Z,4.38
2024-03-07T09:27:44.261Z,3.29
2024-03-07T09:28:44.221Z,4.91
2024-03-07T09:29:44.289Z,3.94
2024-03-07T09:30:44.279Z,3.91
2024-03-07T09:31:44.765Z,3.75
2024-03-07T09:32:44.766Z,3.79
2024-03-07T09:33:44.343Z,4.13
2024-03-07T09:34:44.368Z,2.66
2024-03-07T09:35:44.317Z,3.33
2024-03-07T09:36:44.826Z,4.43
2024-03-07T09:37:44.794Z,2.80
2024-03-07T09:38:44.342Z,4.18
2024-03-07T09:39:44.348Z,5.21
2024-03-07T09:40:44.332Z,4.97
2024-03-07T09:41:44.812Z,5.65
2024-03-07T09:42:44.306Z,5.29
2024-03-07T09:43:44.270Z,5.51
2024-03-07T09:44:44.322Z,5.60
2024-03-07T09:45:46.697Z,5.37
2024-03-07T09:46:44.760Z,5.69
2024-03-07T09:47:44.380Z,5.55
2024-03-07T09:48:44.353Z,4.67
2024-03-07T09:49:44.281Z,3.99
2024-03-07T09:50:44.365Z,7.15
2024-03-07T09:51:44.806Z,6.92
2024-03-07T09:52:44.298Z,6.75
2024-03-07T09:53:44.307Z,5.37
2024-03-07T09:54:44.329Z,5.11
2024-03-07T09:55:44.331Z,5.17
2024-03-07T09:56:44.840Z,5.22
2024-03-07T09:57:44.346Z,5.16
2024-03-07T09:58:44.342Z,5.31
2024-03-07T09:59:44.371Z,6.45
2024-03-07T10:00:44.302Z,6.17
2024-03-07T10:01:44.753Z,6.06
2024-03-07T10:02:45.330Z,5.85
2024-03-07T10:03:44.398Z,5.69
2024-03-07T10:04:44.301Z,6.51
2024-03-07T10:05:44.422Z,5.56
2024-03-07T10:06:44.802Z,5.93
2024-03-07T10:07:44.558Z,6.33
2024-03-07T10:08:44.705Z,5.23
2024-03-07T10:09:44.772Z,5.87
2024-03-07T10:10:44.931Z,4.98
2024-03-07T10:11:47.190Z,3.81
2024-03-07T10:12:44.995Z,4.58
2024-03-07T10:13:45.052Z,2.56
2024-03-07T10:14:45.112Z,3.93
2024-03-07T10:15:45.129Z,5.21
2024-03-07T10:16:45.303Z,5.03
2024-03-07T10:17:47.202Z,3.51
2024-03-07T10:18:45.516Z,3.44
2024-03-07T10:19:45.429Z,3.16
2024-03-07T10:20:45.595Z,4.82
2024-03-07T10:21:45.541Z,4.23
2024-03-07T10:22:45.581Z,4.34
2024-03-07T10:23:45.682Z,2.46
2024-03-07T10:24:45.686Z,3.87
2024-03-07T10:25:45.686Z,3.48
2024-03-07T10:26:45.869Z,3.77
2024-03-07T10:27:45.791Z,2.78
2024-03-07T10:28:45.822Z,2.81
2024-03-07T10:29:45.893Z,2.91
2024-03-07T10:30:45.972Z,2.62
2024-03-07T10:31:53.533Z,2.78
2024-03-07T10:32:47.081Z,2.84
2024-03-07T10:33:46.148Z,3.17
2024-03-07T10:34:46.038Z,2.50
2024-03-07T10:35:46.067Z,3.03
2024-03-07T10:36:46.080Z,2.60
2024-03-07T10:37:46.037Z,2.20
2024-03-07T10:38:46.075Z,2.72
2024-03-07T10:39:46.038Z,2.26
2024-03-07T10:40:46.073Z,2.78
2024-03-07T10:41:46.370Z,3.08
2024-03-07T10:42:46.029Z,4.22
2024-03-07T10:43:46.082Z,3.12
2024-03-07T10:44:46.134Z,4.05
2024-03-07T10:45:46.061Z,4.08
2024-03-07T10:46:46.353Z,3.15
2024-03-07T10:47:46.169Z,3.10
2024-03-07T10:48:46.159Z,3.75
2024-03-07T10:49:46.149Z,3.73
2024-03-07T10:50:46.260Z,4.55
2024-03-07T10:51:46.221Z,4.84
2024-03-07T10:52:46.260Z,4.75
2024-03-07T10:53:46.337Z,4.59
2024-03-07T10:54:49.052Z,4.87
2024-03-07T10:55:46.367Z,5.43
2024-03-07T10:56:46.388Z,4.75
2024-03-07T10:57:47.321Z,4.80
2024-03-07T10:58:46.339Z,4.94
2024-03-07T10:59:46.493Z,4.26
2024-03-07T11:00:46.408Z,3.79
2024-03-07T11:01:46.829Z,3.80
2024-03-07T11:02:46.376Z,3.44
2024-03-07T11:03:46.374Z,2.46
2024-03-07T11:04:46.390Z,2.36
2024-03-07T11:05:46.384Z,2.88
2024-03-07T11:06:46.400Z,2.73
2024-03-07T11:07:46.400Z,3.80
2024-03-07T11:08:46.460Z,3.72
2024-03-07T11:09:46.413Z,2.55
2024-03-07T11:10:46.441Z,2.92
2024-03-07T11:11:46.908Z,3.06
2024-03-07T11:12:46.395Z,2.80
2024-03-07T11:13:46.441Z,2.56
2024-03-07T11:14:46.421Z,2.80
2024-03-07T11:15:46.423Z,2.49
2024-03-07T11:16:46.829Z,2.41
2024-03-07T11:17:46.431Z,2.46
2024-03-07T11:18:46.408Z,2.06
2024-03-07T11:19:46.447Z,2.10
2024-03-07T11:20:46.474Z,2.44
2024-03-07T11:21:46.454Z,2.57
2024-03-07T11:22:46.537Z,2.42
2024-03-07T11:23:46.471Z,2.49
2024-03-07T11:24:46.726Z,2.12
2024-03-07T11:25:46.547Z,2.59
2024-03-07T11:26:46.759Z,2.80
2024-03-07T11:27:46.707Z,2.47
2024-03-07T11:28:46.759Z,2.50
2024-03-07T11:29:46.838Z,2.47
2024-03-07T11:30:46.887Z,2.19
2024-03-07T11:31:47.363Z,2.09
2024-03-07T11:32:48.129Z,2.39
2024-03-07T11:33:47.287Z,2.31
2024-03-07T11:34:47.186Z,2.52
2024-03-07T11:35:47.261Z,2.01
2024-03-07T11:36:47.333Z,3.02
2024-03-07T11:37:47.826Z,3.91
2024-03-07T11:38:47.488Z,4.65
2024-03-07T11:39:47.573Z,3.86
2024-03-07T11:40:47.631Z,3.52
2024-03-07T11:41:47.859Z,3.57
2024-03-07T11:42:47.766Z,3.92
2024-03-07T11:43:47.935Z,3.75
2024-03-07T11:44:47.959Z,3.38
2024-03-07T11:45:48.610Z,3.18
2024-03-07T11:46:48.359Z,3.00
2024-03-07T11:47:48.236Z,3.37
2024-03-07T11:48:48.267Z,3.40
2024-03-07T11:49:48.337Z,2.99
2024-03-07T11:50:48.462Z,3.28
2024-03-07T11:51:48.843Z,2.63
2024-03-07T11:52:48.503Z,2.68
2024-03-07T11:53:48.611Z,2.97
2024-03-07T11:54:48.639Z,3.10
2024-03-07T11:55:48.690Z,2.87
2024-03-07T11:56:48.924Z,3.20
2024-03-07T11:57:48.877Z,2.84
2024-03-07T11:58:48.956Z,2.87
2024-03-07T11:59:49.015Z,2.71
2024-03-07T12:00:49.108Z,2.82
2024-03-07T12:01:49.452Z,2.91
2024-03-07T12:02:49.246Z,2.78
2024-03-07T12:03:49.308Z,2.89
2024-03-07T12:04:49.398Z,2.62
2024-03-07T12:05:49.446Z,2.69
2024-03-07T12:06:49.488Z,2.81
2024-03-07T12:07:49.839Z,2.91
2024-03-07T12:08:49.672Z,2.55
2024-03-07T12:09:49.694Z,2.82
2024-03-07T12:10:50.053Z,2.83
2024-03-07T12:11:49.892Z,2.70
2024-03-07T12:12:49.927Z,2.70
2024-03-07T12:13:49.993Z,2.69
2024-03-07T12:14:50.059Z,2.49
2024-03-07T12:15:50.094Z,2.23
2024-03-07T12:16:50.153Z,2.65
2024-03-07T12:17:50.530Z,3.07
2024-03-07T12:18:50.410Z,2.97
2024-03-07T12:19:50.329Z,2.90
2024-03-07T12:20:50.476Z,3.10
2024-03-07T12:21:50.551Z,2.74
2024-03-07T12:22:50.876Z,2.87
2024-03-07T12:23:50.689Z,2.49
2024-03-07T12:24:50.753Z,2.89
2024-03-07T12:25:50.837Z,3.38
2024-03-07T12:26:50.939Z,2.96
2024-03-07T12:27:51.365Z,3.12
2024-03-07T12:28:51.060Z,2.69
2024-03-07T12:29:51.188Z,2.61
2024-03-07T12:30:51.436Z,2.27
2024-03-07T12:31:51.296Z,2.60
2024-03-07T12:32:51.491Z,2.28
2024-03-07T12:33:51.462Z,2.56
2024-03-07T12:34:51.469Z,2.76
2024-03-07T12:35:51.595Z,2.80
2024-03-07T12:36:51.584Z,3.04
2024-03-07T12:37:51.653Z,2.67
2024-03-07T12:38:51.767Z,2.48
2024-03-07T12:39:51.792Z,3.06
2024-03-07T12:40:51.891Z,2.51
2024-03-07T12:41:52.053Z,2.42
2024-03-07T12:42:52.032Z,2.44
2024-03-07T12:43:52.073Z,2.32
2024-03-07T12:44:52.249Z,2.65
2024-03-07T12:45:52.214Z,2.69
2024-03-07T12:46:52.320Z,2.50
2024-03-07T12:47:52.446Z,2.43
2024-03-07T12:48:52.591Z,2.34
2024-03-07T12:49:52.488Z,2.76
2024-03-07T12:50:52.569Z,2.60
2024-03-07T12:51:52.647Z,1.93
2024-03-07T12:52:52.733Z,2.61
2024-03-07T12:53:52.842Z,2.62
2024-03-07T12:54:52.952Z,2.13
2024-03-07T12:55:52.932Z,2.37
2024-03-07T12:56:53.028Z,2.38
2024-03-07T12:57:53.069Z,2.58
2024-03-07T12:58:53.161Z,2.32
2024-03-07T12:59:53.267Z,2.20
2024-03-07T13:00:53.278Z,2.53
2024-03-07T13:01:53.371Z,2.03
2024-03-07T13:02:53.411Z,2.00
2024-03-07T13:03:53.454Z,2.60
2024-03-07T13:04:53.504Z,2.48
2024-03-07T13:05:53.637Z,2.94
2024-03-07T13:06:53.739Z,2.75
2024-03-07T13:07:53.769Z,2.18
2024-03-07T13:08:53.888Z,2.24
2024-03-07T13:09:53.916Z,2.25
2024-03-07T13:10:53.989Z,2.42
2024-03-07T13:11:54.126Z,1.92
2024-03-07T13:12:54.085Z,2.25
2024-03-07T13:13:54.182Z,2.18
2024-03-07T13:14:54.282Z,2.50
2024-03-07T13:15:54.287Z,1.76
2024-03-07T13:16:54.358Z,2.27
2024-03-07T13:17:54.524Z,2.12
2024-03-07T13:18:54.581Z,2.28
2024-03-07T13:19:54.660Z,1.96
2024-03-07T13:20:54.736Z,2.29
2024-03-07T13:21:54.716Z,2.44